Time;durP1;ratioP1;P1;durP2;ratioP2;P2;SDS_P1;SDS_P2;PMS_P1;PMS_P2;Temp;Humidity;BMP_temperature;BMP_pressure;BME280_temperature;BME280_humidity;BME280_pressure;Samples;Min_cycle;Max_cycle;Signal;HPM_P1;HPM_P2
2023/09/06 00:01:06;;;;;;;1.30;0.85;;;19.90;99.90;;;;;;4997095;28;20042;-71
2023/09/06 00:03:32;;;;;;;2.83;2.13;;;19.90;99.90;;;;;;4995684;28;20843;-71
2023/09/06 00:05:59;;;;;;;4.47;2.65;;;19.90;99.90;;;;;;4979980;28;20038;-70
2023/09/06 00:08:26;;;;;;;2.90;2.08;;;19.90;99.90;;;;;;4997440;28;20052;-70
2023/09/06 00:10:53;;;;;;;2.53;1.48;;;19.80;99.90;;;;;;4997883;28;20336;-72
2023/09/06 00:13:20;;;;;;;2.38;1.15;;;19.80;99.90;;;;;;4994551;28;20025;-71
2023/09/06 00:15:48;;;;;;;1.92;0.90;;;19.80;99.90;;;;;;4979499;28;20685;-72
2023/09/06 00:18:14;;;;;;;1.90;1.02;;;19.80;99.90;;;;;;4994845;28;20046;-71
2023/09/06 00:20:41;;;;;;;1.60;0.80;;;19.80;99.90;;;;;;4996044;28;20034;-72
2023/09/06 00:23:09;;;;;;;1.60;0.50;;;19.70;99.90;;;;;;5012225;28;20037;-71
2023/09/06 00:25:36;;;;;;;1.35;0.60;;;19.70;99.90;;;;;;4995815;28;20029;-72
2023/09/06 00:28:04;;;;;;;1.67;0.60;;;19.60;99.90;;;;;;4996877;28;20041;-72
2023/09/06 00:30:32;;;;;;;1.40;0.70;;;19.60;99.90;;;;;;4979448;28;21243;-71
2023/09/06 00:33:02;;;;;;;1.30;0.68;;;19.60;99.90;;;;;;4995022;28;20045;-72
2023/09/06 00:35:29;;;;;;;1.20;0.60;;;19.50;99.90;;;;;;4995647;28;20048;-72
2023/09/06 00:38:05;;;;;;;2.17;0.80;;;19.50;99.90;;;;;;4980893;28;20448;-72
2023/09/06 00:40:36;;;;;;;1.25;0.60;;;19.50;99.90;;;;;;4979975;28;20400;-72
2023/09/06 00:43:03;;;;;;;2.10;0.90;;;19.40;99.90;;;;;;5027346;28;20776;-71
2023/09/06 00:45:45;;;;;;;1.50;0.60;;;19.40;99.90;;;;;;5027592;28;20413;-73
2023/09/06 00:48:13;;;;;;;1.40;0.70;;;19.40;99.90;;;;;;5011753;28;20484;-72
2023/09/06 00:50:42;;;;;;;1.85;0.73;;;19.40;99.90;;;;;;4995756;28;20049;-70
2023/09/06 00:53:09;;;;;;;1.10;0.60;;;19.40;99.90;;;;;;5010666;28;20048;-71
2023/09/06 00:55:41;;;;;;;3.10;0.90;;;19.40;99.90;;;;;;5030237;28;20045;-72
2023/09/06 00:58:08;;;;;;;1.63;0.70;;;19.30;99.90;;;;;;4994422;28;20041;-70
2023/09/06 01:00:35;;;;;;;2.15;0.68;;;19.30;99.90;;;;;;5012425;28;20048;-72
2023/09/06 01:03:05;;;;;;;1.70;0.70;;;19.30;99.90;;;;;;4994876;28;20045;-71
2023/09/06 01:05:45;;;;;;;1.65;0.63;;;19.30;99.90;;;;;;4996985;28;20536;-71
2023/09/06 01:08:18;;;;;;;1.67;0.60;;;19.30;99.90;;;;;;5010811;28;20045;-71
2023/09/06 01:10:45;;;;;;;1.38;0.70;;;19.20;99.90;;;;;;5011804;28;20030;-72
2023/09/06 01:13:11;;;;;;;1.10;0.60;;;19.20;99.90;;;;;;4994899;28;20033;-71
2023/09/06 01:15:43;;;;;;;1.25;0.60;;;19.10;99.90;;;;;;4996553;28;20034;-71
2023/09/06 01:18:11;;;;;;;2.67;0.70;;;19.10;99.90;;;;;;4994714;28;20042;-71
2023/09/06 01:20:42;;;;;;;1.63;0.60;;;19.10;99.90;;;;;;4978665;28;20803;-72
2023/09/06 01:23:38;;;;;;;1.30;0.68;;;19.00;99.90;;;;;;4995089;28;20052;-72
2023/09/06 01:26:05;;;;;;;2.03;0.70;;;18.90;99.90;;;;;;4980055;28;20045;-72
2023/09/06 01:28:32;;;;;;;2.45;0.93;;;18.90;99.90;;;;;;4979624;28;20042;-73
2023/09/06 01:31:00;;;;;;;1.30;0.70;;;18.80;99.90;;;;;;4979856;28;20556;-70
2023/09/06 01:33:30;;;;;;;1.45;0.73;;;18.80;99.90;;;;;;4995834;28;20038;-72
2023/09/06 01:35:57;;;;;;;1.75;0.95;;;18.80;99.90;;;;;;4979780;28;20464;-72
2023/09/06 01:38:24;;;;;;;2.25;0.80;;;18.70;99.90;;;;;;4997122;28;20044;-72
2023/09/06 01:40:51;;;;;;;1.27;0.82;;;18.70;99.90;;;;;;4978653;28;20503;-72
2023/09/06 01:43:18;;;;;;;1.95;0.80;;;18.60;99.90;;;;;;5010119;28;20072;-72
2023/09/06 01:45:48;;;;;;;1.20;0.90;;;18.60;99.90;;;;;;4995071;28;20038;-71
2023/09/06 01:48:15;;;;;;;1.38;0.77;;;18.60;99.90;;;;;;5010619;28;20049;-71
2023/09/06 01:50:41;;;;;;;1.17;0.60;;;18.50;99.90;;;;;;4995974;28;20034;-72
2023/09/06 01:53:08;;;;;;;1.40;0.65;;;18.50;99.90;;;;;;4978937;28;20026;-72
2023/09/06 01:55:34;;;;;;;1.40;0.70;;;18.50;99.90;;;;;;4995625;28;20089;-71
2023/09/06 01:58:03;;;;;;;1.50;0.70;;;18.40;99.90;;;;;;4979633;28;20041;-72
2023/09/06 02:00:32;;;;;;;1.70;0.90;;;18.40;99.90;;;;;;5030825;28;20034;-72
2023/09/06 02:02:59;;;;;;;1.42;0.80;;;18.40;99.90;;;;;;4997387;28;20042;-74
2023/09/06 02:05:26;;;;;;;1.98;0.68;;;18.30;99.90;;;;;;5014227;28;20050;-72
2023/09/06 02:07:53;;;;;;;1.23;0.80;;;18.30;99.90;;;;;;4984739;28;20048;-71
2023/09/06 02:10:21;;;;;;;1.67;0.68;;;18.30;99.90;;;;;;5031211;28;20041;-71
2023/09/06 02:12:48;;;;;;;1.40;0.82;;;18.30;99.90;;;;;;4998486;28;20033;-71
2023/09/06 02:15:15;;;;;;;1.08;0.70;;;18.30;99.90;;;;;;4999530;28;20473;-72
2023/09/06 02:17:43;;;;;;;1.05;0.63;;;18.30;99.90;;;;;;4999717;28;20426;-72
2023/09/06 02:20:17;;;;;;;1.15;0.60;;;18.20;99.90;;;;;;5032914;28;20033;-71
2023/09/06 02:22:46;;;;;;;1.38;0.93;;;18.20;99.90;;;;;;4998822;28;20038;-72
2023/09/06 02:25:14;;;;;;;1.08;0.75;;;18.20;99.90;;;;;;4998890;28;20465;-71
2023/09/06 02:27:40;;;;;;;1.45;0.80;;;18.10;99.90;;;;;;5031608;28;20044;-71
2023/09/06 02:30:08;;;;;;;1.63;0.70;;;18.10;99.90;;;;;;4982659;28;20051;-72
2023/09/06 02:32:35;;;;;;;1.85;0.73;;;18.10;99.90;;;;;;5001087;28;20033;-72
2023/09/06 02:35:06;;;;;;;1.52;0.70;;;18.10;99.90;;;;;;5000290;28;20029;-72
2023/09/06 02:37:33;;;;;;;1.08;0.60;;;18.10;99.90;;;;;;5013759;28;20037;-72
2023/09/06 02:39:59;;;;;;;1.55;0.80;;;18.10;99.90;;;;;;5030529;28;20060;-73
2023/09/06 02:42:26;;;;;;;1.45;0.90;;;18.00;99.90;;;;;;4982571;28;20378;-71
2023/09/06 02:44:53;;;;;;;1.55;0.75;;;18.00;99.90;;;;;;4997102;28;20045;-72
2023/09/06 02:47:28;;;;;;;1.65;0.90;;;18.00;99.90;;;;;;4997425;28;20046;-72
2023/09/06 02:49:55;;;;;;;1.83;0.80;;;18.00;99.90;;;;;;5015102;28;20049;-71
2023/09/06 02:52:29;;;;;;;1.23;0.70;;;18.00;99.90;;;;;;4999079;28;20030;-72
2023/09/06 02:54:57;;;;;;;1.60;0.85;;;18.00;99.90;;;;;;5028108;28;20041;-72
2023/09/06 03:01:05;;;;;;;1.60;0.60;;;17.90;99.90;;;;;;4995388;28;20108;-71
2023/09/06 03:04:09;;;;;;;1.42;0.68;;;17.80;99.90;;;;;;4999090;28;20092;-72
2023/09/06 03:07:15;;;;;;;1.48;1.00;;;17.80;99.90;;;;;;4996776;28;20056;-72
2023/09/06 03:10:20;;;;;;;1.42;0.82;;;17.80;99.90;;;;;;4996496;28;20048;-72
2023/09/06 03:13:24;;;;;;;1.30;0.73;;;17.80;99.90;;;;;;4996749;28;20515;-72
2023/09/06 03:16:13;;;;;;;1.52;0.85;;;17.80;99.90;;;;;;4983178;28;20037;-71
2023/09/06 03:18:43;;;;;;;2.15;0.90;;;17.80;99.90;;;;;;4996843;28;20034;-72
2023/09/06 03:21:12;;;;;;;1.60;0.68;;;17.70;99.90;;;;;;4997754;28;20056;-72
2023/09/06 03:23:39;;;;;;;1.70;0.80;;;17.70;99.90;;;;;;4998903;28;20033;-73
2023/09/06 03:26:10;;;;;;;1.40;0.70;;;17.70;99.90;;;;;;4998693;28;20038;-72
2023/09/06 03:28:42;;;;;;;1.08;0.70;;;17.60;99.90;;;;;;4997043;28;20036;-71
2023/09/06 03:31:13;;;;;;;1.13;0.70;;;17.60;99.90;;;;;;5015702;28;20496;-71
2023/09/06 03:33:40;;;;;;;1.30;0.70;;;17.60;99.90;;;;;;4997275;28;20042;-71
2023/09/06 03:36:08;;;;;;;1.77;0.68;;;17.60;99.90;;;;;;5013117;28;20030;-71
2023/09/06 03:38:36;;;;;;;1.77;1.00;;;17.60;99.90;;;;;;5029287;28;20045;-71
2023/09/06 03:41:07;;;;;;;1.85;1.10;;;17.60;99.90;;;;;;4980508;28;20037;-72
2023/09/06 03:43:33;;;;;;;1.58;1.00;;;17.50;99.90;;;;;;4996491;28;20365;-72
2023/09/06 03:46:09;;;;;;;1.75;1.10;;;17.50;99.90;;;;;;4997253;28;20038;-71
2023/09/06 03:48:36;;;;;;;2.55;1.00;;;17.50;99.90;;;;;;4998590;28;20038;-71
2023/09/06 03:51:03;;;;;;;1.40;0.70;;;17.50;99.90;;;;;;4983143;28;20033;-72
2023/09/06 03:53:29;;;;;;;1.35;0.70;;;17.50;99.90;;;;;;4980446;28;20575;-73
2023/09/06 03:55:57;;;;;;;1.50;0.90;;;17.40;99.90;;;;;;4981874;28;22635;-72
2023/09/06 03:58:30;;;;;;;1.60;0.88;;;17.40;99.90;;;;;;5013682;28;20064;-71
2023/09/06 04:00:58;;;;;;;1.70;0.70;;;17.40;99.90;;;;;;4982633;28;20876;-71
2023/09/06 04:03:30;;;;;;;1.83;0.70;;;17.40;99.90;;;;;;4994935;28;20034;-71
2023/09/06 04:05:57;;;;;;;1.85;0.85;;;17.40;99.90;;;;;;4995377;28;20025;-72
2023/09/06 04:08:28;;;;;;;2.25;0.63;;;17.40;99.90;;;;;;4995512;28;20045;-71
2023/09/06 04:10:55;;;;;;;1.40;0.80;;;17.40;99.90;;;;;;4995923;28;20049;-71
2023/09/06 04:13:21;;;;;;;3.40;0.85;;;17.40;99.90;;;;;;4995485;28;20485;-70
2023/09/06 04:15:49;;;;;;;1.20;0.80;;;17.40;99.90;;;;;;5012127;28;20404;-71
2023/09/06 04:18:18;;;;;;;2.97;0.73;;;17.40;99.90;;;;;;4979432;28;20041;-71
2023/09/06 04:20:46;;;;;;;1.50;0.88;;;17.40;99.90;;;;;;5030397;28;20029;-72
2023/09/06 04:23:16;;;;;;;2.42;1.02;;;17.40;99.90;;;;;;4995253;28;20037;-71
2023/09/06 04:25:47;;;;;;;1.23;0.77;;;17.40;99.90;;;;;;4996619;28;20489;-71
2023/09/06 04:28:20;;;;;;;1.13;0.77;;;17.40;99.90;;;;;;4997512;28;20037;-71
2023/09/06 04:30:50;;;;;;;2.28;0.98;;;17.40;99.90;;;;;;5012012;28;20030;-72
2023/09/06 04:33:19;;;;;;;1.90;1.25;;;17.40;99.90;;;;;;4992963;28;20057;-71
2023/09/06 04:35:53;;;;;;;1.52;0.95;;;17.30;99.90;;;;;;5012050;28;20034;-71
2023/09/06 04:38:25;;;;;;;2.55;1.00;;;17.30;99.90;;;;;;4994470;28;20527;-71
2023/09/06 04:40:58;;;;;;;1.30;0.65;;;17.30;99.90;;;;;;4996053;28;20048;-71
2023/09/06 04:43:28;;;;;;;1.67;0.70;;;17.30;99.90;;;;;;4995031;28;20041;-71
2023/09/06 04:45:56;;;;;;;3.63;1.00;;;17.30;99.90;;;;;;5012524;28;20042;-71
2023/09/06 04:48:23;;;;;;;1.33;0.80;;;17.30;99.90;;;;;;4996147;28;20037;-72
2023/09/06 04:50:56;;;;;;;1.80;0.80;;;17.20;99.90;;;;;;4996114;28;20049;-72
2023/09/06 04:53:24;;;;;;;1.40;0.80;;;17.20;99.90;;;;;;4995382;28;20045;-72
2023/09/06 04:55:52;;;;;;;1.50;0.90;;;17.20;99.90;;;;;;4981760;28;20046;-72
2023/09/06 04:58:24;;;;;;;1.63;1.05;;;17.20;99.90;;;;;;4995088;28;20038;-71
2023/09/06 05:00:51;;;;;;;3.25;0.80;;;17.10;99.90;;;;;;5010520;28;21974;-72
2023/09/06 05:03:17;;;;;;;5.20;0.88;;;17.10;99.90;;;;;;5008744;28;20595;-71
2023/09/06 05:05:47;;;;;;;2.38;0.80;;;17.10;99.90;;;;;;4994723;28;20033;-73
2023/09/06 05:08:16;;;;;;;1.23;0.80;;;17.10;99.90;;;;;;5025607;28;20037;-72
2023/09/06 05:10:42;;;;;;;1.63;0.98;;;17.10;99.90;;;;;;4995110;28;20080;-71
2023/09/06 05:13:11;;;;;;;1.85;0.88;;;17.10;99.90;;;;;;5025864;28;20033;-72
2023/09/06 05:15:41;;;;;;;1.75;0.80;;;17.00;99.90;;;;;;4997430;28;20378;-72
2023/09/06 05:18:10;;;;;;;1.60;0.95;;;17.00;99.90;;;;;;5028923;28;20052;-72
2023/09/06 05:20:39;;;;;;;2.72;0.90;;;17.00;99.90;;;;;;5016392;28;20048;-72
2023/09/06 05:23:12;;;;;;;2.45;1.10;;;17.00;99.90;;;;;;5026916;28;20041;-71
2023/09/06 05:25:40;;;;;;;2.22;1.15;;;17.00;99.90;;;;;;4997010;28;20409;-72
2023/09/06 05:28:10;;;;;;;1.60;1.10;;;17.00;99.90;;;;;;5010980;28;20057;-71
2023/09/06 05:30:40;;;;;;;2.97;1.30;;;17.10;99.90;;;;;;5008796;28;20432;-71
2023/09/06 05:33:09;;;;;;;2.40;1.15;;;17.10;99.90;;;;;;4995031;28;20045;-72
2023/09/06 05:35:37;;;;;;;1.65;1.00;;;17.10;99.90;;;;;;5027581;28;20025;-72
2023/09/06 05:38:04;;;;;;;1.65;1.13;;;17.20;99.90;;;;;;4982196;28;20038;-72
2023/09/06 05:40:33;;;;;;;1.38;0.85;;;17.20;99.90;;;;;;4983812;28;20491;-72
2023/09/06 05:43:01;;;;;;;2.70;1.30;;;17.30;99.90;;;;;;4980884;28;20331;-73
2023/09/06 05:45:28;;;;;;;2.20;1.05;;;17.30;99.90;;;;;;5000532;28;20034;-72
2023/09/06 05:47:55;;;;;;;2.55;1.50;;;17.30;99.90;;;;;;5001408;28;20053;-73
2023/09/06 05:50:22;;;;;;;2.22;1.63;;;17.40;99.90;;;;;;4985277;28;20053;-73
2023/09/06 05:52:49;;;;;;;2.40;1.52;;;17.40;99.90;;;;;;5012502;28;20393;-73
2023/09/06 05:55:15;;;;;;;2.65;1.65;;;17.50;99.90;;;;;;4985179;28;20030;-72
2023/09/06 05:57:43;;;;;;;2.20;1.50;;;17.60;99.90;;;;;;4981912;28;20378;-73
2023/09/06 06:00:15;;;;;;;2.67;1.42;;;17.70;99.90;;;;;;5029465;28;20504;-72
2023/09/06 06:02:49;;;;;;;2.20;1.67;;;17.80;99.90;;;;;;4997061;28;20060;-73
2023/09/06 06:05:18;;;;;;;1.90;1.33;;;18.00;99.90;;;;;;4998790;28;20045;-73
2023/09/06 06:07:45;;;;;;;2.65;1.38;;;18.10;99.90;;;;;;5013179;28;20061;-72
2023/09/06 06:10:14;;;;;;;2.05;1.17;;;18.30;99.90;;;;;;4983524;28;20033;-73
2023/09/06 06:12:41;;;;;;;2.40;1.40;;;18.50;99.90;;;;;;4981707;28;20409;-71
2023/09/06 06:15:11;;;;;;;2.42;1.45;;;18.70;99.90;;;;;;5032741;28;20038;-72
2023/09/06 06:17:39;;;;;;;2.30;1.40;;;18.80;99.90;;;;;;4983595;28;20401;-73
2023/09/06 06:20:06;;;;;;;2.17;1.40;;;19.00;99.90;;;;;;5000625;28;20037;-72
2023/09/06 06:22:43;;;;;;;3.28;1.45;;;19.20;99.90;;;;;;5017003;28;20042;-73
2023/09/06 06:25:10;;;;;;;1.73;1.23;;;19.40;99.90;;;;;;5015645;28;20041;-73
2023/09/06 06:27:37;;;;;;;2.30;1.83;;;19.50;99.90;;;;;;4998273;28;20041;-72
2023/09/06 06:30:06;;;;;;;2.53;1.40;;;19.70;99.90;;;;;;5015828;28;20040;-72
2023/09/06 06:32:35;;;;;;;2.60;0.95;;;19.90;99.90;;;;;;4981737;28;20042;-72
2023/09/06 06:35:05;;;;;;;1.90;1.58;;;20.00;99.90;;;;;;4997974;28;20496;-73
2023/09/06 06:37:33;;;;;;;2.53;1.30;;;20.10;99.90;;;;;;5014453;28;20034;-73
2023/09/06 06:40:00;;;;;;;2.85;2.38;;;20.30;99.90;;;;;;5031265;28;20044;-72
2023/09/06 06:42:27;;;;;;;16.98;12.88;;;20.40;99.90;;;;;;4996112;28;20045;-71
2023/09/06 06:45:02;;;;;;;15.13;11.10;;;20.60;99.90;;;;;;5016320;28;20030;-73
2023/09/06 06:47:28;;;;;;;9.38;6.47;;;20.70;99.90;;;;;;4982932;28;20026;-72
2023/09/06 06:49:54;;;;;;;6.18;3.97;;;20.80;99.90;;;;;;4999743;28;20049;-73
2023/09/06 06:52:21;;;;;;;3.47;3.05;;;20.90;99.90;;;;;;4999325;28;20145;-73
2023/09/06 06:54:47;;;;;;;4.80;2.25;;;21.00;99.90;;;;;;4997616;28;20052;-73
2023/09/06 06:57:14;;;;;;;6.03;2.22;;;21.20;99.90;;;;;;4999430;28;20026;-72
2023/09/06 06:59:40;;;;;;;5.20;1.52;;;21.20;99.90;;;;;;4998007;28;20041;-73
2023/09/06 07:02:07;;;;;;;1.67;1.10;;;21.40;99.90;;;;;;4997872;28;20515;-73
2023/09/06 07:04:33;;;;;;;4.30;1.83;;;21.50;99.90;;;;;;4997513;28;20037;-73
2023/09/06 07:07:00;;;;;;;2.95;1.42;;;21.50;99.90;;;;;;4981613;28;20033;-73
2023/09/06 07:09:26;;;;;;;3.33;1.42;;;21.70;99.90;;;;;;4998981;28;20030;-73
2023/09/06 07:11:53;;;;;;;2.00;1.40;;;21.80;99.90;;;;;;4997149;28;20041;-72
2023/09/06 07:14:20;;;;;;;4.95;1.70;;;21.90;99.90;;;;;;5012740;28;20037;-72
2023/09/06 07:16:47;;;;;;;2.92;1.35;;;22.00;99.90;;;;;;4997938;28;20030;-71
2023/09/06 07:19:13;;;;;;;4.22;2.22;;;22.10;99.90;;;;;;5011336;28;20034;-73
2023/09/06 07:21:40;;;;;;;3.25;1.80;;;22.20;99.90;;;;;;5013823;28;20045;-72
2023/09/06 07:24:09;;;;;;;2.85;1.45;;;22.30;99.90;;;;;;5028569;28;20038;-73
2023/09/06 07:26:36;;;;;;;2.28;1.35;;;22.40;99.90;;;;;;4996790;28;20034;-72
2023/09/06 07:29:03;;;;;;;2.88;1.85;;;22.50;99.90;;;;;;4997036;28;20504;-73
2023/09/06 07:31:29;;;;;;;1.90;1.23;;;22.60;99.90;;;;;;5011226;28;20049;-72
2023/09/06 07:33:55;;;;;;;2.00;1.13;;;22.70;99.90;;;;;;4999938;28;20030;-73
2023/09/06 07:36:22;;;;;;;2.42;1.27;;;22.70;99.90;;;;;;4982354;28;20040;-72
2023/09/06 07:38:54;;;;;;;2.55;1.23;;;22.80;99.90;;;;;;4981010;28;20038;-73
2023/09/06 07:41:21;;;;;;;1.67;1.13;;;22.90;99.90;;;;;;4998784;28;20044;-73
2023/09/06 07:43:48;;;;;;;2.33;1.23;;;23.10;99.90;;;;;;5014583;28;20026;-72
2023/09/06 07:46:14;;;;;;;1.98;1.17;;;23.20;99.90;;;;;;5016338;28;20164;-73
2023/09/06 07:48:41;;;;;;;3.10;1.33;;;23.30;99.90;;;;;;4997778;28;20030;-73
2023/09/06 07:51:08;;;;;;;3.58;1.80;;;23.40;99.90;;;;;;5016314;28;20034;-73
2023/09/06 07:53:34;;;;;;;2.40;1.27;;;23.50;99.90;;;;;;4980887;28;20034;-71
2023/09/06 07:56:01;;;;;;;4.43;1.50;;;23.60;99.90;;;;;;4980944;28;20521;-73
2023/09/06 07:58:28;;;;;;;2.20;1.27;;;23.70;99.90;;;;;;5012859;28;20030;-72
2023/09/06 08:00:54;;;;;;;1.63;1.02;;;23.80;99.90;;;;;;5012722;28;20405;-73
2023/09/06 08:03:21;;;;;;;2.53;1.13;;;23.90;99.90;;;;;;4980331;28;20042;-72
2023/09/06 08:05:47;;;;;;;2.50;1.30;;;24.00;99.90;;;;;;4981361;28;20045;-73
2023/09/06 08:08:13;;;;;;;2.38;1.30;;;24.10;99.90;;;;;;4997301;28;20065;-72
2023/09/06 08:10:40;;;;;;;2.58;1.40;;;24.20;99.90;;;;;;4998865;28;20042;-72
2023/09/06 08:13:06;;;;;;;2.78;1.63;;;24.30;99.90;;;;;;5012105;28;20045;-72
2023/09/06 08:15:37;;;;;;;3.28;1.65;;;24.30;99.90;;;;;;4998756;28;20033;-72
2023/09/06 08:18:05;;;;;;;2.55;1.20;;;24.50;99.90;;;;;;4981881;28;20037;-72
2023/09/06 08:20:40;;;;;;;2.70;1.50;;;24.60;99.90;;;;;;5112872;27;20902;-73
2023/09/06 08:23:06;;;;;;;2.72;1.52;;;24.70;99.90;;;;;;5114195;27;20038;-72
2023/09/06 08:25:34;;;;;;;1.80;1.00;;;24.70;99.90;;;;;;5091744;27;20046;-74
2023/09/06 08:28:00;;;;;;;3.47;1.00;;;24.90;99.90;;;;;;5109450;27;20026;-72
2023/09/06 08:30:27;;;;;;;1.58;1.00;;;25.00;99.90;;;;;;5111627;27;20038;-72
2023/09/06 08:32:56;;;;;;;2.30;1.25;;;25.10;99.90;;;;;;5091434;27;20035;-73
2023/09/06 08:35:23;;;;;;;2.95;1.15;;;25.20;99.90;;;;;;5096666;27;20039;-73
2023/09/06 08:37:50;;;;;;;1.60;1.15;;;25.20;99.90;;;;;;5111246;27;20035;-72
2023/09/06 08:40:18;;;;;;;2.95;1.08;;;25.30;99.90;;;;;;5096346;27;20049;-73
2023/09/06 08:42:45;;;;;;;2.17;1.30;;;25.40;99.90;;;;;;5095273;27;20035;-72
2023/09/06 08:45:12;;;;;;;1.40;0.95;;;25.50;99.90;;;;;;5095334;27;20451;-72
2023/09/06 08:47:39;;;;;;;2.28;0.80;;;25.60;99.90;;;;;;5110710;27;20042;-72
2023/09/06 08:50:10;;;;;;;1.73;0.98;;;25.70;99.90;;;;;;5095353;27;20038;-72
2023/09/06 08:52:40;;;;;;;2.03;0.77;;;25.80;99.90;;;;;;5111305;27;20047;-72
2023/09/06 08:55:09;;;;;;;1.77;1.00;;;25.90;99.90;;;;;;5103403;27;20027;-73
2023/09/06 08:57:41;;;;;;;3.85;0.85;;;26.00;99.90;;;;;;5093071;27;20039;-73
2023/09/06 09:00:09;;;;;;;3.80;1.40;;;26.10;99.90;;;;;;5078114;27;20039;-73
2023/09/06 09:02:37;;;;;;;1.65;0.88;;;26.20;99.90;;;;;;5092740;27;20031;-73
2023/09/06 09:05:08;;;;;;;1.40;0.57;;;26.30;99.90;;;;;;5111646;27;20034;-73
2023/09/06 09:07:36;;;;;;;2.42;0.93;;;26.50;99.90;;;;;;5110377;27;20038;-72
2023/09/06 09:10:10;;;;;;;3.28;1.20;;;26.50;99.90;;;;;;5093352;27;20031;-72
2023/09/06 09:12:38;;;;;;;2.17;1.13;;;26.60;99.90;;;;;;5089857;27;20023;-73
2023/09/06 09:15:07;;;;;;;2.40;1.25;;;26.70;99.90;;;;;;5096199;27;20042;-73
2023/09/06 09:17:37;;;;;;;1.83;0.73;;;26.80;99.90;;;;;;5093809;27;20046;-72
2023/09/06 09:20:05;;;;;;;1.88;0.77;;;26.90;99.90;;;;;;5094547;27;20062;-72
2023/09/06 09:22:37;;;;;;;1.60;0.77;;;27.00;99.90;;;;;;5093142;27;20441;-73
2023/09/06 09:25:17;;;;;;;;;;;27.10;99.90;;;;;;5078891;27;20035;-72
2023/09/06 09:27:50;;;;;;;1.88;0.80;;;27.20;99.90;;;;;;5095101;27;20554;-74
2023/09/06 09:30:18;;;;;;;3.42;0.80;;;27.40;99.90;;;;;;5106922;27;20043;-73
2023/09/06 09:32:44;;;;;;;2.20;0.93;;;27.60;99.90;;;;;;5077287;28;20490;-72
2023/09/06 09:35:12;;;;;;;2.67;0.90;;;27.70;99.90;;;;;;5095698;27;20031;-73
2023/09/06 09:37:50;;;;;;;1.92;1.10;;;27.90;99.90;;;;;;5063089;27;20027;-73
2023/09/06 09:40:18;;;;;;;1.40;0.70;;;27.90;99.90;;;;;;5094103;27;20569;-72
2023/09/06 09:42:56;;;;;;;2.42;0.60;;;27.90;99.90;;;;;;5077101;28;22043;-72
2023/09/06 09:45:28;;;;;;;1.60;1.00;;;28.00;99.90;;;;;;5095871;27;20047;-74
2023/09/06 09:47:56;;;;;;;2.58;1.00;;;28.20;99.90;;;;;;5077049;27;20430;-73
2023/09/06 09:50:25;;;;;;;4.65;1.23;;;28.30;99.90;;;;;;5080915;27;20039;-71
2023/09/06 09:52:53;;;;;;;1.58;0.88;;;28.40;99.70;;;;;;5073963;27;20028;-73
2023/09/06 09:55:27;;;;;;;2.33;1.00;;;28.50;99.50;;;;;;5095868;27;20383;-73
2023/09/06 09:57:55;;;;;;;6.25;2.00;;;28.50;99.00;;;;;;5080156;28;20035;-73
2023/09/06 10:00:27;;;;;;;3.55;2.30;;;28.60;98.90;;;;;;5078493;27;20028;-73
2023/09/06 10:02:58;;;;;;;5.15;2.45;;;28.70;98.80;;;;;;5077220;27;20901;-72
2023/09/06 10:05:29;;;;;;;13.30;11.95;;;28.80;98.50;;;;;;5076635;28;20036;-73
2023/09/06 10:07:56;;;;;;;4.55;3.75;;;29.00;98.40;;;;;;5078736;27;20657;-74
2023/09/06 10:10:24;;;;;;;3.30;2.13;;;29.10;98.20;;;;;;5060411;27;20046;-74
2023/09/06 10:12:52;;;;;;;2.72;1.80;;;29.30;98.00;;;;;;5094353;27;20028;-74
2023/09/06 10:15:24;;;;;;;2.10;1.10;;;29.40;97.60;;;;;;5078222;27;20526;-73
2023/09/06 10:17:54;;;;;;;1.77;1.23;;;29.60;97.60;;;;;;5096337;27;20034;-74
2023/09/06 10:20:26;;;;;;;1.65;0.90;;;29.80;96.70;;;;;;5074532;27;20051;-74
2023/09/06 10:22:57;;;;;;;2.75;1.20;;;30.10;97.00;;;;;;5077256;27;20032;-74
2023/09/06 10:25:25;;;;;;;2.45;1.08;;;30.50;96.40;;;;;;5095381;27;20403;-74
2023/09/06 10:27:54;;;;;;;3.55;1.20;;;30.80;96.10;;;;;;5079098;28;20402;-73
2023/09/06 10:30:34;;;;;;;3.40;1.30;;;31.10;95.40;;;;;;5095843;27;20046;-74
2023/09/06 10:33:02;;;;;;;5.57;1.48;;;31.40;94.70;;;;;;5094063;27;20043;-73
2023/09/06 10:35:32;;;;;;;1.98;1.05;;;31.80;94.40;;;;;;5095099;27;20031;-74
2023/09/06 10:38:10;;;;;;;2.78;1.50;;;32.10;94.20;;;;;;5061232;27;20043;-72
2023/09/06 10:40:53;;;;;;;2.88;1.15;;;32.50;93.90;;;;;;5095633;27;20047;-72
2023/09/06 10:43:29;;;;;;;3.05;1.60;;;33.00;93.50;;;;;;5090333;27;20055;-75
2023/09/06 10:46:07;;;;;;;2.88;1.25;;;33.40;92.70;;;;;;5094144;27;20028;-73
2023/09/06 10:48:34;;;;;;;2.45;1.50;;;33.80;91.60;;;;;;5076605;27;20090;-74
2023/09/06 10:51:04;;;;;;;2.22;1.20;;;34.10;91.10;;;;;;5079364;27;20802;-73
2023/09/06 10:53:31;;;;;;;2.90;1.45;;;34.50;90.30;;;;;;5092751;27;20054;-72
2023/09/06 10:55:59;;;;;;;2.95;1.23;;;34.80;88.20;;;;;;5095825;27;20039;-73
2023/09/06 10:58:29;;;;;;;2.38;1.05;;;35.00;86.80;;;;;;5094488;27;20043;-73
2023/09/06 11:01:18;;;;;;;2.50;0.90;;;35.30;85.20;;;;;;5096771;27;20039;-72
2023/09/06 11:03:50;;;;;;;2.20;1.10;;;35.70;83.20;;;;;;5090772;27;20037;-74
2023/09/06 11:06:18;;;;;;;3.08;1.42;;;35.90;82.10;;;;;;5060936;28;20046;-74
2023/09/06 11:08:47;;;;;;;10.02;8.82;;;36.20;81.00;;;;;;5077529;28;20164;-72
2023/09/06 11:11:14;;;;;;;2.75;2.50;;;36.50;78.90;;;;;;5093294;27;20036;-73
2023/09/06 11:13:44;;;;;;;2.63;1.88;;;36.70;77.10;;;;;;5080255;27;20470;-73
2023/09/06 11:16:13;;;;;;;1.88;1.08;;;36.90;74.80;;;;;;5091507;27;20039;-73
2023/09/06 11:18:47;;;;;;;1.80;1.20;;;37.00;73.70;;;;;;5077658;27;20043;-72
2023/09/06 11:21:22;;;;;;;2.88;1.40;;;37.20;72.50;;;;;;5060551;27;20479;-73
2023/09/06 11:23:51;;;;;;;3.08;1.10;;;37.40;70.20;;;;;;5058576;27;20035;-72
2023/09/06 11:26:19;;;;;;;3.13;1.20;;;37.50;69.00;;;;;;5095288;27;20032;-72
2023/09/06 11:28:50;;;;;;;2.17;1.10;;;37.70;68.00;;;;;;5093820;27;20024;-72
2023/09/06 11:31:21;;;;;;;3.10;1.10;;;37.90;67.20;;;;;;5095571;27;20035;-72
2023/09/06 11:33:55;;;;;;;4.97;1.42;;;38.20;66.60;;;;;;5069610;28;20030;-72
2023/09/06 11:36:30;;;;;;;2.55;1.40;;;38.60;65.70;;;;;;5072454;27;20535;-72
2023/09/06 11:38:57;;;;;;;1.80;1.27;;;38.80;64.00;;;;;;5094726;27;20031;-73
2023/09/06 11:41:24;;;;;;;2.63;1.40;;;38.90;61.70;;;;;;5057232;28;20486;-71
2023/09/06 11:43:56;;;;;;;9.00;6.47;;;38.90;60.70;;;;;;5077528;28;20042;-73
2023/09/06 11:46:24;;;;;;;3.33;1.83;;;38.90;60.00;;;;;;5063016;28;20612;-74
2023/09/06 11:48:53;;;;;;;3.88;1.42;;;39.00;59.50;;;;;;5074592;27;20036;-74
2023/09/06 11:51:22;;;;;;;3.03;1.60;;;39.00;58.40;;;;;;5078302;27;20031;-73
2023/09/06 11:54:00;;;;;;;3.95;1.17;;;39.00;58.30;;;;;;5055670;28;20530;-74
2023/09/06 11:56:33;;;;;;;4.93;1.70;;;39.20;58.60;;;;;;5074963;27;20045;-73
2023/09/06 11:59:00;;;;;;;4.45;1.55;;;39.60;58.70;;;;;;5074290;28;20032;-73
2023/09/06 12:01:26;;;;;;;4.13;2.03;;;39.80;59.20;;;;;;5058272;28;20407;-72
2023/09/06 12:03:56;;;;;;;5.57;3.65;;;39.90;58.10;;;;;;5072255;28;20486;-73
2023/09/06 12:06:25;;;;;;;4.20;3.22;;;40.10;58.10;;;;;;5095112;27;20027;-72
2023/09/06 12:08:51;;;;;;;3.25;1.77;;;40.40;58.20;;;;;;5077072;28;20039;-73
2023/09/06 12:11:21;;;;;;;2.65;1.40;;;40.70;57.80;;;;;;5095239;27;20035;-72
2023/09/06 12:13:48;;;;;;;2.43;1.13;;;41.00;57.40;;;;;;5090174;27;20040;-71
2023/09/06 12:16:16;;;;;;;4.07;1.38;;;41.30;56.60;;;;;;5075458;28;20280;-72
2023/09/06 12:18:42;;;;;;;3.88;1.33;;;41.40;55.60;;;;;;5075988;28;20040;-73
2023/09/06 12:21:09;;;;;;;3.22;1.50;;;41.60;56.20;;;;;;5073797;28;21346;-73
2023/09/06 12:23:36;;;;;;;3.08;1.30;;;41.80;54.50;;;;;;5091394;28;20027;-72
2023/09/06 12:26:03;;;;;;;2.15;1.23;;;42.00;54.50;;;;;;5094682;28;20024;-72
2023/09/06 12:28:31;;;;;;;4.90;1.20;;;42.10;53.80;;;;;;5076166;28;20042;-73
2023/09/06 12:31:02;;;;;;;4.18;1.13;;;42.30;53.70;;;;;;5075613;28;20997;-73
2023/09/06 12:33:29;;;;;;;2.40;0.98;;;42.60;53.00;;;;;;5091819;28;20383;-73
2023/09/06 12:35:59;;;;;;;2.55;1.20;;;42.70;51.90;;;;;;5077580;28;20035;-74
2023/09/06 12:38:27;;;;;;;3.08;1.48;;;42.80;51.60;;;;;;5076148;28;20135;-72
2023/09/06 12:40:53;;;;;;;1.67;1.13;;;43.00;50.90;;;;;;5080867;28;20023;-72
2023/09/06 12:43:21;;;;;;;2.25;1.60;;;43.10;50.40;;;;;;5073662;28;20543;-76
2023/09/06 12:45:48;;;;;;;1.65;1.25;;;43.40;50.00;;;;;;5094790;28;20387;-73
2023/09/06 12:48:15;;;;;;;4.43;1.55;;;43.60;49.30;;;;;;5091407;28;20032;-73
2023/09/06 12:50:42;;;;;;;2.53;1.20;;;43.80;49.20;;;;;;5073744;28;20035;-74
2023/09/06 12:53:08;;;;;;;4.18;3.78;;;44.00;48.80;;;;;;5089579;28;20035;-73
2023/09/06 12:55:35;;;;;;;5.82;4.78;;;44.20;48.10;;;;;;5079420;28;20020;-74
2023/09/06 12:58:06;;;;;;;5.22;3.50;;;44.40;47.70;;;;;;5073696;28;20020;-72
2023/09/06 13:00:33;;;;;;;4.53;1.52;;;44.40;47.10;;;;;;5094470;28;20039;-74
2023/09/06 13:03:01;;;;;;;4.03;1.40;;;44.50;47.00;;;;;;5060906;28;20326;-76